sensor_id;sensor_type;location;lat;lon;timestamp;temperature;humidity
23329;DHT22;11836;51.050;3.716;2023-04-01T00:00:16;17.40;99.90
23329;DHT22;11836;51.050;3.716;2023-04-01T00:02:42;17.40;99.90
23329;DHT22;11836;51.050;3.716;2023-04-01T00:05:08;17.30;99.90
23329;DHT22;11836;51.050;3.716;2023-04-01T00:07:39;17.30;99.90
23329;DHT22;11836;51.050;3.716;2023-04-01T00:10:10;17.40;99.90
23329;DHT22;11836;51.050;3.716;2023-04-01T00:12:38;17.30;99.90
23329;DHT22;11836;51.050;3.716;2023-04-01T00:15:06;17.30;99.90
23329;DHT22;11836;51.050;3.716;2023-04-01T00:17:32;17.30;99.90
23329;DHT22;11836;51.050;3.716;2023-04-01T00:19:59;17.30;99.90
23329;DHT22;11836;51.050;3.716;2023-04-01T00:22:26;17.30;99.90
23329;DHT22;11836;51.050;3.716;2023-04-01T00:24:53;17.30;99.90
23329;DHT22;11836;51.050;3.716;2023-04-01T00:27:21;17.30;99.90
23329;DHT22;11836;51.050;3.716;2023-04-01T00:29:48;17.30;99.90
23329;DHT22;11836;51.050;3.716;2023-04-01T00:32:14;17.30;99.90
23329;DHT22;11836;51.050;3.716;2023-04-01T00:34:40;17.30;99.90
23329;DHT22;11836;51.050;3.716;2023-04-01T00:37:07;17.30;99.90
23329;DHT22;11836;51.050;3.716;2023-04-01T00:39:34;17.30;99.90
23329;DHT22;11836;51.050;3.716;2023-04-01T00:42:00;17.30;99.90
23329;DHT22;11836;51.050;3.716;2023-04-01T00:44:30;17.20;99.90
23329;DHT22;11836;51.050;3.716;2023-04-01T00:46:56;17.20;99.90
23329;DHT22;11836;51.050;3.716;2023-04-01T00:49:27;17.20;99.90
23329;DHT22;11836;51.050;3.716;2023-04-01T00:51:57;17.20;99.90
23329;DHT22;11836;51.050;3.716;2023-04-01T00:54:25;17.20;99.90
23329;DHT22;11836;51.050;3.716;2023-04-01T00:57:02;17.20;99.90
23329;DHT22;11836;51.050;3.716;2023-04-01T00:59:37;17.20;99.90
23329;DHT22;11836;51.050;3.716;2023-04-01T01:02:07;17.20;99.90
23329;DHT22;11836;51.050;3.716;2023-04-01T01:04:35;17.20;99.90
23329;DHT22;11836;51.050;3.716;2023-04-01T01:27:02;17.10;99.90
23329;DHT22;11836;51.050;3.716;2023-04-01T01:35:27;17.10;99.90
23329;DHT22;11836;51.050;3.716;2023-04-01T01:38:00;17.20;99.90
23329;DHT22;11836;51.050;3.716;2023-04-01T01:40:29;17.10;99.90
23329;DHT22;11836;51.050;3.716;2023-04-01T01:43:00;17.10;99.90
23329;DHT22;11836;51.050;3.716;2023-04-01T01:45:27;17.10;99.90
23329;DHT22;11836;51.050;3.716;2023-04-01T01:47:55;17.10;99.90
23329;DHT22;11836;51.050;3.716;2023-04-01T01:50:24;17.10;99.90
23329;DHT22;11836;51.050;3.716;2023-04-01T01:53:10;17.00;99.90
23329;DHT22;11836;51.050;3.716;2023-04-01T01:55:40;17.10;99.90
23329;DHT22;11836;51.050;3.716;2023-04-01T02:00:43;17.00;99.90
23329;DHT22;11836;51.050;3.716;2023-04-01T02:03:11;17.00;99.90
23329;DHT22;11836;51.050;3.716;2023-04-01T02:05:38;17.00;99.90
23329;DHT22;11836;51.050;3.716;2023-04-01T02:08:17;17.00;99.90
23329;DHT22;11836;51.050;3.716;2023-04-01T02:10:51;17.00;99.90
23329;DHT22;11836;51.050;3.716;2023-04-01T02:16:07;17.00;99.90
23329;DHT22;11836;51.050;3.716;2023-04-01T02:18:35;17.00;99.90
23329;DHT22;11836;51.050;3.716;2023-04-01T02:21:04;17.00;99.90
23329;DHT22;11836;51.050;3.716;2023-04-01T02:23:33;17.00;99.90
23329;DHT22;11836;51.050;3.716;2023-04-01T02:26:01;17.00;99.90
23329;DHT22;11836;51.050;3.716;2023-04-01T02:28:29;17.00;99.90
23329;DHT22;11836;51.050;3.716;2023-04-01T02:30:57;16.90;99.90
23329;DHT22;11836;51.050;3.716;2023-04-01T02:33:27;17.00;99.90
23329;DHT22;11836;51.050;3.716;2023-04-01T02:35:53;17.00;99.90
23329;DHT22;11836;51.050;3.716;2023-04-01T02:38:19;17.00;99.90
23329;DHT22;11836;51.050;3.716;2023-04-01T02:40:48;16.90;99.90
23329;DHT22;11836;51.050;3.716;2023-04-01T02:43:15;16.90;99.90
23329;DHT22;11836;51.050;3.716;2023-04-01T02:45:42;16.90;99.90
23329;DHT22;11836;51.050;3.716;2023-04-01T02:48:10;16.90;99.90
23329;DHT22;11836;51.050;3.716;2023-04-01T02:50:38;16.90;99.90
23329;DHT22;11836;51.050;3.716;2023-04-01T02:53:04;16.90;99.90
23329;DHT22;11836;51.050;3.716;2023-04-01T02:55:32;16.90;99.90
23329;DHT22;11836;51.050;3.716;2023-04-01T02:57:59;16.90;99.90
23329;DHT22;11836;51.050;3.716;2023-04-01T03:00:25;16.90;99.90
23329;DHT22;11836;51.050;3.716;2023-04-01T03:02:51;16.90;99.90
23329;DHT22;11836;51.050;3.716;2023-04-01T03:05:17;16.90;99.90
23329;DHT22;11836;51.050;3.716;2023-04-01T03:07:43;16.90;99.90
23329;DHT22;11836;51.050;3.716;2023-04-01T03:10:09;16.90;99.90
23329;DHT22;11836;51.050;3.716;2023-04-01T03:12:35;16.90;99.90
23329;DHT22;11836;51.050;3.716;2023-04-01T03:15:01;16.90;99.90
23329;DHT22;11836;51.050;3.716;2023-04-01T03:17:26;16.90;99.90
23329;DHT22;11836;51.050;3.716;2023-04-01T03:19:52;16.80;99.90
23329;DHT22;11836;51.050;3.716;2023-04-01T03:22:18;16.80;99.90
23329;DHT22;11836;51.050;3.716;2023-04-01T03:24:46;16.80;99.90
23329;DHT22;11836;51.050;3.716;2023-04-01T03:27:12;16.80;99.90
23329;DHT22;11836;51.050;3.716;2023-04-01T03:29:38;16.80;99.90
23329;DHT22;11836;51.050;3.716;2023-04-01T03:32:04;16.80;99.90
23329;DHT22;11836;51.050;3.716;2023-04-01T03:34:30;16.80;99.90
23329;DHT22;11836;51.050;3.716;2023-04-01T03:36:55;16.80;99.90
23329;DHT22;11836;51.050;3.716;2023-04-01T03:39:21;16.80;99.90
23329;DHT22;11836;51.050;3.716;2023-04-01T03:41:47;16.80;99.90
23329;DHT22;11836;51.050;3.716;2023-04-01T03:44:13;16.80;99.90
23329;DHT22;11836;51.050;3.716;2023-04-01T03:46:39;16.80;99.90
23329;DHT22;11836;51.050;3.716;2023-04-01T03:49:11;16.80;99.90
23329;DHT22;11836;51.050;3.716;2023-04-01T03:51:38;16.80;99.90
23329;DHT22;11836;51.050;3.716;2023-04-01T03:54:04;16.80;99.90
23329;DHT22;11836;51.050;3.716;2023-04-01T03:56:30;16.80;99.90
23329;DHT22;11836;51.050;3.716;2023-04-01T03:58:56;16.80;99.90
23329;DHT22;11836;51.050;3.716;2023-04-01T04:01:22;16.80;99.90
23329;DHT22;11836;51.050;3.716;2023-04-01T04:03:49;16.80;99.90
23329;DHT22;11836;51.050;3.716;2023-04-01T04:06:16;16.80;99.90
23329;DHT22;11836;51.050;3.716;2023-04-01T04:08:42;16.80;99.90
23329;DHT22;11836;51.050;3.716;2023-04-01T04:11:08;16.70;99.90
23329;DHT22;11836;51.050;3.716;2023-04-01T04:13:35;16.80;99.90
23329;DHT22;11836;51.050;3.716;2023-04-01T04:16:02;16.70;99.90
23329;DHT22;11836;51.050;3.716;2023-04-01T04:18:28;16.70;99.90
23329;DHT22;11836;51.050;3.716;2023-04-01T04:20:53;16.70;99.90
23329;DHT22;11836;51.050;3.716;2023-04-01T04:23:22;16.70;99.90
23329;DHT22;11836;51.050;3.716;2023-04-01T04:26:02;16.70;99.90
23329;DHT22;11836;51.050;3.716;2023-04-01T04:28:27;16.70;99.90
23329;DHT22;11836;51.050;3.716;2023-04-01T04:30:56;16.60;99.90
23329;DHT22;11836;51.050;3.716;2023-04-01T04:33:48;16.60;99.90
23329;DHT22;11836;51.050;3.716;2023-04-01T04:36:14;16.60;99.90
23329;DHT22;11836;51.050;3.716;2023-04-01T04:38:40;16.60;99.90
23329;DHT22;11836;51.050;3.716;2023-04-01T04:41:13;16.60;99.90
23329;DHT22;11836;51.050;3.716;2023-04-01T04:43:40;16.60;99.90
23329;DHT22;11836;51.050;3.716;2023-04-01T04:46:10;16.60;99.90
23329;DHT22;11836;51.050;3.716;2023-04-01T04:48:36;16.60;99.90
23329;DHT22;11836;51.050;3.716;2023-04-01T04:51:05;16.60;99.90
23329;DHT22;11836;51.050;3.716;2023-04-01T04:53:30;16.60;99.90
23329;DHT22;11836;51.050;3.716;2023-04-01T04:55:56;16.60;99.90
23329;DHT22;11836;51.050;3.716;2023-04-01T04:58:21;16.60;99.90
23329;DHT22;11836;51.050;3.716;2023-04-01T05:00:48;16.60;99.90
23329;DHT22;11836;51.050;3.716;2023-04-01T05:03:15;16.60;99.90
23329;DHT22;11836;51.050;3.716;2023-04-01T05:05:51;16.60;99.90
23329;DHT22;11836;51.050;3.716;2023-04-01T05:08:17;16.60;99.90
23329;DHT22;11836;51.050;3.716;2023-04-01T05:10:43;16.60;99.90
23329;DHT22;11836;51.050;3.716;2023-04-01T05:13:08;16.60;99.90
23329;DHT22;11836;51.050;3.716;2023-04-01T05:15:35;16.60;99.90
23329;DHT22;11836;51.050;3.716;2023-04-01T05:18:01;16.60;99.90
23329;DHT22;11836;51.050;3.716;2023-04-01T05:20:26;16.50;99.90
23329;DHT22;11836;51.050;3.716;2023-04-01T05:22:56;16.50;99.90
23329;DHT22;11836;51.050;3.716;2023-04-01T05:25:22;16.60;99.90
23329;DHT22;11836;51.050;3.716;2023-04-01T05:27:47;16.50;99.90
23329;DHT22;11836;51.050;3.716;2023-04-01T05:30:13;16.50;99.90
23329;DHT22;11836;51.050;3.716;2023-04-01T05:32:38;16.50;99.90
23329;DHT22;11836;51.050;3.716;2023-04-01T05:35:05;16.50;99.90
23329;DHT22;11836;51.050;3.716;2023-04-01T05:37:32;16.50;99.90
23329;DHT22;11836;51.050;3.716;2023-04-01T05:39:58;16.50;99.90
23329;DHT22;11836;51.050;3.716;2023-04-01T05:42:24;16.50;99.90
23329;DHT22;11836;51.050;3.716;2023-04-01T05:44:50;16.50;99.90
23329;DHT22;11836;51.050;3.716;2023-04-01T05:47:15;16.50;99.90
23329;DHT22;11836;51.050;3.716;2023-04-01T05:49:41;16.50;99.90
23329;DHT22;11836;51.050;3.716;2023-04-01T05:52:07;16.50;99.90
23329;DHT22;11836;51.050;3.716;2023-04-01T05:54:33;16.50;99.90
23329;DHT22;11836;51.050;3.716;2023-04-01T05:56:58;16.50;99.90
23329;DHT22;11836;51.050;3.716;2023-04-01T05:59:24;16.50;99.90
23329;DHT22;11836;51.050;3.716;2023-04-01T06:01:50;16.50;99.90
23329;DHT22;11836;51.050;3.716;2023-04-01T06:04:17;16.50;99.90
23329;DHT22;11836;51.050;3.716;2023-04-01T06:06:43;16.50;99.90
23329;DHT22;11836;51.050;3.716;2023-04-01T06:09:17;16.40;99.90
23329;DHT22;11836;51.050;3.716;2023-04-01T06:12:20;16.50;99.90
23329;DHT22;11836;51.050;3.716;2023-04-01T06:18:18;16.40;99.90
23329;DHT22;11836;51.050;3.716;2023-04-01T06:21:08;16.40;99.90
23329;DHT22;11836;51.050;3.716;2023-04-01T06:24:00;16.40;99.90
23329;DHT22;11836;51.050;3.716;2023-04-01T06:26:53;16.40;99.90
23329;DHT22;11836;51.050;3.716;2023-04-01T06:29:28;16.40;99.90
23329;DHT22;11836;51.050;3.716;2023-04-01T06:48:17;16.40;99.90
23329;DHT22;11836;51.050;3.716;2023-04-01T06:56:21;16.40;99.90
23329;DHT22;11836;51.050;3.716;2023-04-01T06:59:00;16.40;99.90
23329;DHT22;11836;51.050;3.716;2023-04-01T07:04:05;16.40;99.90
23329;DHT22;11836;51.050;3.716;2023-04-01T07:06:36;16.40;99.90
23329;DHT22;11836;51.050;3.716;2023-04-01T07:09:14;16.40;99.90
23329;DHT22;11836;51.050;3.716;2023-04-01T07:11:45;16.40;99.90
23329;DHT22;11836;51.050;3.716;2023-04-01T07:16:50;16.30;99.90
23329;DHT22;11836;51.050;3.716;2023-04-01T07:22:29;16.30;99.90
23329;DHT22;11836;51.050;3.716;2023-04-01T07:25:27;16.30;99.90
23329;DHT22;11836;51.050;3.716;2023-04-01T07:28:04;16.30;99.90
23329;DHT22;11836;51.050;3.716;2023-04-01T07:30:47;16.30;99.90
23329;DHT22;11836;51.050;3.716;2023-04-01T07:33:28;16.30;99.90
23329;DHT22;11836;51.050;3.716;2023-04-01T07:36:13;16.30;99.90
23329;DHT22;11836;51.050;3.716;2023-04-01T07:45:06;16.40;99.90
23329;DHT22;11836;51.050;3.716;2023-04-01T07:51:13;16.50;99.90
23329;DHT22;11836;51.050;3.716;2023-04-01T07:59:45;16.70;99.90
23329;DHT22;11836;51.050;3.716;2023-04-01T08:02:55;16.70;99.90
23329;DHT22;11836;51.050;3.716;2023-04-01T08:05:28;16.70;99.90
23329;DHT22;11836;51.050;3.716;2023-04-01T08:08:25;16.80;99.90
23329;DHT22;11836;51.050;3.716;2023-04-01T08:18:54;16.90;99.90
23329;DHT22;11836;51.050;3.716;2023-04-01T08:21:43;17.00;99.90
23329;DHT22;11836;51.050;3.716;2023-04-01T08:24:35;17.00;99.90
23329;DHT22;11836;51.050;3.716;2023-04-01T08:27:08;17.10;99.90
23329;DHT22;11836;51.050;3.716;2023-04-01T08:29:58;17.10;99.90
23329;DHT22;11836;51.050;3.716;2023-04-01T08:32:48;17.20;99.90
23329;DHT22;11836;51.050;3.716;2023-04-01T08:35:37;17.20;99.90
23329;DHT22;11836;51.050;3.716;2023-04-01T08:38:27;17.20;99.90
23329;DHT22;11836;51.050;3.716;2023-04-01T08:49:56;17.20;99.90
23329;DHT22;11836;51.050;3.716;2023-04-01T09:13:55;17.40;99.90
23329;DHT22;11836;51.050;3.716;2023-04-01T09:29:41;17.50;99.90
23329;DHT22;11836;51.050;3.716;2023-04-01T09:40:33;17.50;99.90
23329;DHT22;11836;51.050;3.716;2023-04-01T10:00:03;17.70;99.90
23329;DHT22;11836;51.050;3.716;2023-04-01T10:05:41;17.70;99.90
23329;DHT22;11836;51.050;3.716;2023-04-01T10:11:30;17.80;99.90
23329;DHT22;11836;51.050;3.716;2023-04-01T10:17:12;17.80;99.90
23329;DHT22;11836;51.050;3.716;2023-04-01T10:34:09;18.00;99.80
23329;DHT22;11836;51.050;3.716;2023-04-01T11:29:48;17.90;99.60
23329;DHT22;11836;51.050;3.716;2023-04-01T11:32:42;18.00;99.60
23329;DHT22;11836;51.050;3.716;2023-04-01T11:43:37;17.90;99.60
23329;DHT22;11836;51.050;3.716;2023-04-01T11:46:16;17.90;99.60
23329;DHT22;11836;51.050;3.716;2023-04-01T11:52:28;17.90;99.60
23329;DHT22;11836;51.050;3.716;2023-04-01T12:06:42;18.00;99.60
23329;DHT22;11836;51.050;3.716;2023-04-01T12:12:16;18.00;99.50
23329;DHT22;11836;51.050;3.716;2023-04-01T12:14:55;18.00;99.50
23329;DHT22;11836;51.050;3.716;2023-04-01T12:20:52;18.10;99.40
23329;DHT22;11836;51.050;3.716;2023-04-01T12:29:54;18.10;99.40
23329;DHT22;11836;51.050;3.716;2023-04-01T12:38:15;18.10;99.30
23329;DHT22;11836;51.050;3.716;2023-04-01T12:50:08;18.00;99.30
23329;DHT22;11836;51.050;3.716;2023-04-01T12:55:23;18.00;99.30
23329;DHT22;11836;51.050;3.716;2023-04-01T12:58:09;18.00;99.40
23329;DHT22;11836;51.050;3.716;2023-04-01T13:03:25;18.00;99.40
23329;DHT22;11836;51.050;3.716;2023-04-01T13:22:38;18.00;99.70
23329;DHT22;11836;51.050;3.716;2023-04-01T13:25:06;18.10;99.80
23329;DHT22;11836;51.050;3.716;2023-04-01T13:27:44;18.10;99.80
23329;DHT22;11836;51.050;3.716;2023-04-01T13:33:08;18.10;99.70
23329;DHT22;11836;51.050;3.716;2023-04-01T13:35:52;18.10;99.70
23329;DHT22;11836;51.050;3.716;2023-04-01T13:41:45;18.20;99.60
23329;DHT22;11836;51.050;3.716;2023-04-01T13:47:30;18.20;99.60
23329;DHT22;11836;51.050;3.716;2023-04-01T13:58:30;18.30;99.40
23329;DHT22;11836;51.050;3.716;2023-04-01T14:06:40;18.30;99.30
23329;DHT22;11836;51.050;3.716;2023-04-01T14:28:16;18.30;99.20
23329;DHT22;11836;51.050;3.716;2023-04-01T14:39:28;18.30;99.30
23329;DHT22;11836;51.050;3.716;2023-04-01T14:50:23;18.30;99.30
23329;DHT22;11836;51.050;3.716;2023-04-01T14:55:55;18.30;99.20
23329;DHT22;11836;51.050;3.716;2023-04-01T14:58:23;18.30;99.10
23329;DHT22;11836;51.050;3.716;2023-04-01T15:04:04;18.30;99.10
23329;DHT22;11836;51.050;3.716;2023-04-01T15:09:24;18.30;99.00
23329;DHT22;11836;51.050;3.716;2023-04-01T15:25:44;18.20;99.30
23329;DHT22;11836;51.050;3.716;2023-04-01T15:28:16;18.20;98.90
23329;DHT22;11836;51.050;3.716;2023-04-01T15:30:51;18.20;99.00
23329;DHT22;11836;51.050;3.716;2023-04-01T15:39:14;18.20;99.30
23329;DHT22;11836;51.050;3.716;2023-04-01T15:47:36;18.20;99.80
23329;DHT22;11836;51.050;3.716;2023-04-01T15:50:26;18.20;99.80
23329;DHT22;11836;51.050;3.716;2023-04-01T15:58:38;18.20;99.90
23329;DHT22;11836;51.050;3.716;2023-04-01T16:01:19;18.30;99.90
23329;DHT22;11836;51.050;3.716;2023-04-01T16:06:22;18.20;99.90
23329;DHT22;11836;51.050;3.716;2023-04-01T16:14:14;18.20;99.90
23329;DHT22;11836;51.050;3.716;2023-04-01T16:16:58;18.20;99.90
23329;DHT22;11836;51.050;3.716;2023-04-01T16:22:48;18.20;99.90
23329;DHT22;11836;51.050;3.716;2023-04-01T16:25:20;18.20;99.90
23329;DHT22;11836;51.050;3.716;2023-04-01T16:30:57;18.20;99.90
23329;DHT22;11836;51.050;3.716;2023-04-01T16:42:09;18.30;99.90
23329;DHT22;11836;51.050;3.716;2023-04-01T16:44:50;18.10;99.90
23329;DHT22;11836;51.050;3.716;2023-04-01T16:47:22;18.20;99.90
23329;DHT22;11836;51.050;3.716;2023-04-01T16:49:52;18.10;99.90
23329;DHT22;11836;51.050;3.716;2023-04-01T16:58:07;18.10;99.90
23329;DHT22;11836;51.050;3.716;2023-04-01T17:00:48;18.10;99.90
23329;DHT22;11836;51.050;3.716;2023-04-01T17:03:21;18.10;99.90
23329;DHT22;11836;51.050;3.716;2023-04-01T17:06:16;18.00;99.90
23329;DHT22;11836;51.050;3.716;2023-04-01T17:17:37;18.00;99.90
23329;DHT22;11836;51.050;3.716;2023-04-01T17:28:37;18.00;99.90
23329;DHT22;11836;51.050;3.716;2023-04-01T17:31:52;18.00;99.90
23329;DHT22;11836;51.050;3.716;2023-04-01T17:50:27;18.00;99.90
23329;DHT22;11836;51.050;3.716;2023-04-01T17:55:49;18.10;99.90
23329;DHT22;11836;51.050;3.716;2023-04-01T17:58:19;18.10;99.90
23329;DHT22;11836;51.050;3.716;2023-04-01T18:01:23;18.10;99.90
23329;DHT22;11836;51.050;3.716;2023-04-01T18:15:29;18.00;99.90
23329;DHT22;11836;51.050;3.716;2023-04-01T18:18:11;18.00;99.90
23329;DHT22;11836;51.050;3.716;2023-04-01T18:23:39;18.00;99.90
23329;DHT22;11836;51.050;3.716;2023-04-01T18:26:11;18.00;99.90
23329;DHT22;11836;51.050;3.716;2023-04-01T18:28:50;18.00;99.90
23329;DHT22;11836;51.050;3.716;2023-04-01T18:31:20;17.90;99.90
23329;DHT22;11836;51.050;3.716;2023-04-01T18:39:16;18.00;99.90
23329;DHT22;11836;51.050;3.716;2023-04-01T18:44:47;17.90;99.90
23329;DHT22;11836;51.050;3.716;2023-04-01T18:49:59;17.90;99.90
23329;DHT22;11836;51.050;3.716;2023-04-01T18:52:39;17.90;99.90
23329;DHT22;11836;51.050;3.716;2023-04-01T18:57:53;17.90;99.90
23329;DHT22;11836;51.050;3.716;2023-04-01T19:05:40;17.90;99.90
23329;DHT22;11836;51.050;3.716;2023-04-01T19:08:33;17.90;99.90
23329;DHT22;11836;51.050;3.716;2023-04-01T19:16:50;17.80;99.90
23329;DHT22;11836;51.050;3.716;2023-04-01T19:19:34;17.80;99.90
23329;DHT22;11836;51.050;3.716;2023-04-01T19:22:13;17.80;99.90
23329;DHT22;11836;51.050;3.716;2023-04-01T19:27:36;17.80;99.90
23329;DHT22;11836;51.050;3.716;2023-04-01T19:41:39;17.90;99.90
23329;DHT22;11836;51.050;3.716;2023-04-01T19:44:36;17.80;99.90
23329;DHT22;11836;51.050;3.716;2023-04-01T19:48:02;17.80;99.90
23329;DHT22;11836;51.050;3.716;2023-04-01T19:50:41;17.80;99.90
23329;DHT22;11836;51.050;3.716;2023-04-01T19:53:18;17.80;99.90
23329;DHT22;11836;51.050;3.716;2023-04-01T19:58:40;17.80;99.90
23329;DHT22;11836;51.050;3.716;2023-04-01T20:01:14;17.80;99.90
23329;DHT22;11836;51.050;3.716;2023-04-01T20:03:55;17.80;99.90
23329;DHT22;11836;51.050;3.716;2023-04-01T20:06:37;17.80;99.90
23329;DHT22;11836;51.050;3.716;2023-04-01T20:17:18;17.80;99.90
23329;DHT22;11836;51.050;3.716;2023-04-01T20:19:55;17.80;99.90
23329;DHT22;11836;51.050;3.716;2023-04-01T20:25:52;17.80;99.90
23329;DHT22;11836;51.050;3.716;2023-04-01T20:33:53;17.70;99.90
23329;DHT22;11836;51.050;3.716;2023-04-01T20:36:40;17.80;99.90
23329;DHT22;11836;51.050;3.716;2023-04-01T20:42:23;17.70;99.90
23329;DHT22;11836;51.050;3.716;2023-04-01T20:50:29;17.70;99.90
23329;DHT22;11836;51.050;3.716;2023-04-01T21:13:11;17.60;99.90
23329;DHT22;11836;51.050;3.716;2023-04-01T21:30:05;17.50;99.90
23329;DHT22;11836;51.050;3.716;2023-04-01T21:44:41;17.40;99.90
23329;DHT22;11836;51.050;3.716;2023-04-01T22:03:52;17.30;99.90
23329;DHT22;11836;51.050;3.716;2023-04-01T22:06:42;17.30;99.90
23329;DHT22;11836;51.050;3.716;2023-04-01T22:09:27;17.30;99.90
23329;DHT22;11836;51.050;3.716;2023-04-01T22:14:54;17.20;99.90
23329;DHT22;11836;51.050;3.716;2023-04-01T22:17:49;17.20;99.90
23329;DHT22;11836;51.050;3.716;2023-04-01T22:28:21;17.10;99.90
23329;DHT22;11836;51.050;3.716;2023-04-01T22:30:59;17.20;99.90
23329;DHT22;11836;51.050;3.716;2023-04-01T22:36:24;17.10;99.90
23329;DHT22;11836;51.050;3.716;2023-04-01T22:42:16;17.10;99.90
23329;DHT22;11836;51.050;3.716;2023-04-01T22:52:45;17.00;99.90
23329;DHT22;11836;51.050;3.716;2023-04-01T22:55:20;17.00;99.90
23329;DHT22;11836;51.050;3.716;2023-04-01T22:58:08;17.00;99.90
23329;DHT22;11836;51.050;3.716;2023-04-01T23:03:52;16.90;99.90
23329;DHT22;11836;51.050;3.716;2023-04-01T23:06:27;17.00;99.90
23329;DHT22;11836;51.050;3.716;2023-04-01T23:26:25;16.90;99.90
23329;DHT22;11836;51.050;3.716;2023-04-01T23:28:57;16.80;99.90
23329;DHT22;11836;51.050;3.716;2023-04-01T23:34:20;16.80;99.90
23329;DHT22;11836;51.050;3.716;2023-04-01T23:36:52;16.80;99.90
23329;DHT22;11836;51.050;3.716;2023-04-01T23:39:30;16.80;99.90
23329;DHT22;11836;51.050;3.716;2023-04-01T23:42:03;16.80;99.90
23329;DHT22;11836;51.050;3.716;2023-04-01T23:44:31;16.80;99.90
23329;DHT22;11836;51.050;3.716;2023-04-01T23:46:59;16.70;99.90
23329;DHT22;11836;51.050;3.716;2023-04-01T23:49:36;16.80;99.90
23329;DHT22;11836;51.050;3.716;2023-04-01T23:55:08;16.80;99.90
23329;DHT22;11836;51.050;3.716;2023-04-01T23:57:35;16.70;99.90
